createdAt,value
2019-03-23T00:02:02.194Z,8.20
2019-03-23T00:04:38.686Z,8.16
2019-03-23T00:07:13.209Z,8.34
2019-03-23T00:09:47.827Z,8.33
2019-03-23T00:12:22.301Z,8.23
2019-03-23T00:14:57.065Z,8.14
2019-03-23T00:17:33.075Z,8.09
2019-03-23T00:20:10.053Z,8.04
2019-03-23T00:22:44.614Z,8.05
2019-03-23T00:25:19.286Z,8.02
2019-03-23T00:27:55.364Z,7.93
2019-03-23T00:30:29.934Z,7.86
2019-03-23T00:33:04.511Z,7.83
2019-03-23T00:35:40.901Z,7.79
2019-03-23T00:38:15.464Z,7.76
2019-03-23T00:40:50.142Z,7.71
2019-03-23T00:43:24.810Z,7.72
2019-03-23T00:46:02.316Z,7.68
2019-03-23T00:48:36.965Z,7.63
2019-03-23T00:51:11.570Z,7.57
2019-03-23T00:53:47.824Z,7.61
2019-03-23T00:56:22.333Z,7.61
2019-03-23T00:58:56.845Z,7.61
2019-03-23T01:01:31.809Z,7.58
2019-03-23T01:04:06.548Z,7.53
2019-03-23T01:06:51.539Z,7.51
2019-03-23T01:09:17.851Z,7.41
2019-03-23T01:11:53.950Z,7.33
2019-03-23T01:14:28.605Z,7.24
2019-03-23T01:17:03.259Z,7.19
2019-03-23T01:19:37.962Z,7.07
2019-03-23T01:22:12.818Z,7.02
2019-03-23T01:24:47.699Z,6.95
2019-03-23T01:27:22.172Z,6.87
2019-03-23T01:29:56.753Z,6.79
2019-03-23T01:32:31.634Z,6.77
2019-03-23T01:35:09.846Z,6.81
2019-03-23T01:37:44.514Z,6.82
2019-03-23T01:40:19.345Z,6.82
2019-03-23T01:42:53.794Z,6.84
2019-03-23T01:45:28.425Z,6.90
2019-03-23T01:48:03.068Z,6.95
2019-03-23T01:50:38.076Z,6.93
2019-03-23T01:53:12.992Z,6.94
2019-03-23T01:55:47.510Z,6.99
2019-03-23T01:58:22.020Z,6.93
2019-03-23T02:00:57.993Z,6.92
2019-03-23T02:03:33.574Z,6.88
2019-03-23T02:06:09.385Z,6.88
2019-03-23T02:08:45.316Z,6.86
2019-03-23T02:11:20.202Z,6.87
2019-03-23T02:13:54.886Z,6.85
2019-03-23T02:16:29.856Z,6.84
2019-03-23T02:19:04.469Z,6.76
2019-03-23T02:21:39.259Z,6.73
2019-03-23T02:24:13.870Z,6.73
2019-03-23T02:26:48.897Z,6.71
2019-03-23T02:29:23.518Z,6.69
2019-03-23T02:31:58.082Z,6.68
2019-03-23T02:34:32.610Z,6.69
2019-03-23T02:37:07.217Z,6.68
2019-03-23T02:39:42.074Z,6.68
2019-03-23T02:42:16.657Z,6.68
2019-03-23T02:44:51.214Z,6.70
2019-03-23T02:47:26.327Z,6.75
2019-03-23T02:50:02.652Z,6.74
2019-03-23T02:52:38.101Z,6.77
2019-03-23T02:55:13.774Z,6.72
2019-03-23T02:57:48.344Z,6.77
2019-03-23T03:00:23.053Z,6.77
2019-03-23T03:02:57.589Z,6.68
2019-03-23T03:05:32.217Z,6.66
2019-03-23T03:08:08.583Z,6.62
2019-03-23T03:10:43.972Z,6.52
2019-03-23T03:13:20.038Z,6.44
2019-03-23T03:15:54.491Z,6.45
2019-03-23T03:18:29.099Z,6.45
2019-03-23T03:21:03.962Z,6.44
2019-03-23T03:23:38.698Z,6.42
2019-03-23T03:26:13.604Z,6.54
2019-03-23T03:28:48.359Z,6.58
2019-03-23T03:31:22.973Z,6.63
2019-03-23T03:33:57.612Z,6.59
2019-03-23T03:36:33.640Z,6.52
2019-03-23T03:39:12.392Z,6.44
2019-03-23T03:41:47.032Z,6.44
2019-03-23T03:44:22.255Z,6.41
2019-03-23T03:46:56.830Z,6.39
2019-03-23T03:49:31.342Z,6.33
2019-03-23T03:52:05.945Z,6.28
2019-03-23T03:54:40.656Z,6.29
2019-03-23T03:57:15.283Z,6.25
2019-03-23T03:59:50.019Z,6.20
2019-03-23T04:02:24.850Z,6.17
2019-03-23T04:04:59.482Z,6.14
2019-03-23T04:07:35.067Z,6.08
2019-03-23T04:10:10.652Z,6.09
2019-03-23T04:12:45.299Z,6.11
2019-03-23T04:15:20.340Z,6.13
2019-03-23T04:17:54.977Z,6.14
2019-03-23T04:20:29.999Z,6.15
2019-03-23T04:23:04.827Z,6.20
2019-03-23T04:25:39.744Z,6.24
2019-03-23T04:28:16.457Z,6.32
2019-03-23T04:30:51.328Z,6.41
2019-03-23T04:33:26.525Z,6.51
2019-03-23T04:36:01.039Z,6.66
2019-03-23T04:38:36.164Z,6.71
2019-03-23T04:41:12.167Z,6.80
2019-03-23T04:43:46.744Z,6.78
2019-03-23T04:46:21.792Z,6.77
2019-03-23T04:48:56.326Z,6.75
2019-03-23T04:51:31.038Z,6.73
2019-03-23T04:54:05.739Z,6.73
2019-03-23T04:56:40.307Z,6.73
2019-03-23T04:59:14.917Z,6.66
2019-03-23T05:01:49.830Z,6.64
2019-03-23T05:04:24.780Z,6.64
2019-03-23T05:06:59.616Z,6.57
2019-03-23T05:09:34.388Z,6.53
2019-03-23T05:12:09.322Z,6.58
2019-03-23T05:14:43.905Z,6.55
2019-03-23T05:17:20.252Z,6.53
2019-03-23T05:19:54.905Z,6.59
2019-03-23T05:22:29.539Z,6.60
2019-03-23T05:25:04.662Z,6.74
2019-03-23T05:27:39.295Z,6.82
2019-03-23T05:30:13.980Z,6.91
2019-03-23T05:32:48.479Z,6.98
2019-03-23T05:35:23.179Z,6.97
2019-03-23T05:37:59.336Z,7.34
2019-03-23T05:40:33.780Z,7.17
2019-03-23T05:43:08.896Z,7.21
2019-03-23T05:45:43.523Z,7.50
2019-03-23T05:48:18.345Z,7.31
2019-03-23T05:50:52.927Z,7.31
2019-03-23T05:53:29.033Z,7.26
2019-03-23T05:56:03.554Z,7.39
2019-03-23T05:58:38.407Z,7.32
2019-03-23T06:01:13.006Z,7.32
2019-03-23T06:03:47.844Z,7.28
2019-03-23T06:06:22.360Z,7.36
2019-03-23T06:08:57.107Z,7.63
2019-03-23T06:11:32.142Z,7.54
2019-03-23T06:14:06.806Z,7.61
2019-03-23T06:16:41.816Z,7.55
2019-03-23T06:19:16.599Z,7.62
2019-03-23T06:21:51.287Z,7.67
2019-03-23T06:24:26.035Z,7.64
2019-03-23T06:27:00.655Z,7.85
2019-03-23T06:29:35.390Z,7.85
2019-03-23T06:32:09.993Z,7.61
2019-03-23T06:34:44.661Z,7.62
2019-03-23T06:37:19.332Z,7.53
2019-03-23T06:39:53.918Z,7.65
2019-03-23T06:42:28.634Z,7.75
2019-03-23T06:45:05.299Z,7.62
2019-03-23T06:47:39.801Z,7.58
2019-03-23T06:50:16.100Z,7.48
2019-03-23T06:52:51.232Z,7.55
2019-03-23T06:55:26.027Z,7.50
2019-03-23T06:58:00.585Z,7.57
2019-03-23T07:00:37.011Z,7.62
2019-03-23T07:03:11.665Z,7.80
2019-03-23T07:05:46.382Z,7.84
2019-03-23T07:08:31.320Z,7.75
2019-03-23T07:10:59.642Z,7.77
2019-03-23T07:13:34.421Z,7.87
2019-03-23T07:16:09.109Z,7.68
2019-03-23T07:18:43.681Z,7.62
2019-03-23T07:21:18.350Z,7.56
2019-03-23T07:23:54.981Z,7.65
2019-03-23T07:26:31.484Z,7.74
2019-03-23T07:29:07.410Z,7.52
2019-03-23T07:31:42.343Z,7.49
2019-03-23T07:34:17.054Z,7.31
2019-03-23T07:36:51.796Z,7.19
2019-03-23T07:39:30.441Z,7.31
2019-03-23T07:42:04.518Z,7.30
2019-03-23T07:44:39.201Z,7.25
2019-03-23T07:47:13.892Z,7.32
2019-03-23T07:49:48.821Z,7.35
2019-03-23T07:52:23.473Z,7.48
2019-03-23T07:55:00.543Z,7.46
2019-03-23T07:57:35.269Z,7.46
2019-03-23T08:00:11.790Z,7.37
2019-03-23T08:02:46.310Z,7.42
2019-03-23T08:05:21.062Z,7.25
2019-03-23T08:07:55.733Z,7.52
2019-03-23T08:10:33.762Z,7.66
2019-03-23T08:13:08.672Z,7.59
2019-03-23T08:15:43.992Z,7.64
2019-03-23T08:18:18.853Z,7.47
2019-03-23T08:20:53.629Z,7.70
2019-03-23T08:23:28.487Z,7.58
2019-03-23T08:26:04.965Z,7.60
2019-03-23T08:28:39.697Z,7.67
2019-03-23T08:31:15.672Z,7.67
2019-03-23T08:33:52.213Z,7.76
2019-03-23T08:36:28.276Z,7.64
2019-03-23T08:39:03.008Z,7.65
2019-03-23T08:41:37.526Z,7.82
2019-03-23T08:44:12.157Z,7.90
2019-03-23T08:46:48.522Z,8.04
2019-03-23T08:49:23.037Z,7.75
2019-03-23T08:51:57.877Z,7.90
2019-03-23T08:54:32.668Z,7.83
2019-03-23T08:57:07.373Z,7.93
2019-03-23T08:59:43.644Z,8.01
2019-03-23T09:02:18.252Z,8.07
2019-03-23T09:04:52.786Z,7.87
2019-03-23T09:07:28.401Z,7.99
2019-03-23T09:10:04.787Z,7.83
2019-03-23T09:12:39.535Z,7.97
2019-03-23T09:15:15.636Z,8.02
2019-03-23T09:17:50.448Z,8.05
2019-03-23T09:20:25.012Z,8.14
2019-03-23T09:23:01.481Z,8.06
2019-03-23T09:25:36.271Z,8.20
2019-03-23T09:28:10.874Z,8.41
2019-03-23T09:30:45.607Z,8.37
2019-03-23T09:33:20.326Z,8.35
2019-03-23T09:35:56.765Z,8.19
2019-03-23T09:38:31.585Z,8.35
2019-03-23T09:41:06.202Z,8.23
2019-03-23T09:43:42.177Z,8.16
2019-03-23T09:46:16.904Z,8.09
2019-03-23T09:48:52.879Z,8.19
2019-03-23T09:51:29.340Z,8.09
2019-03-23T09:54:04.157Z,8.17
2019-03-23T09:56:38.878Z,8.26
2019-03-23T09:59:13.420Z,8.20
2019-03-23T10:01:49.473Z,8.24
2019-03-23T10:04:24.875Z,8.19
2019-03-23T10:06:59.591Z,8.25
2019-03-23T10:09:34.092Z,8.08
2019-03-23T10:12:09.008Z,8.13
2019-03-23T10:14:43.617Z,8.20
2019-03-23T10:17:18.677Z,8.28
2019-03-23T10:19:53.610Z,8.31
2019-03-23T10:22:28.267Z,8.35
2019-03-23T10:25:03.013Z,8.63
2019-03-23T10:27:37.810Z,8.54
2019-03-23T10:30:12.923Z,8.56
2019-03-23T10:32:47.507Z,8.64
2019-03-23T10:35:22.361Z,8.48
2019-03-23T10:37:57.010Z,8.53
2019-03-23T10:40:32.622Z,8.56
2019-03-23T10:43:07.901Z,8.67
2019-03-23T10:45:44.299Z,8.83
2019-03-23T10:48:19.366Z,8.74
2019-03-23T10:50:55.844Z,8.89
2019-03-23T10:53:30.752Z,8.88
2019-03-23T10:56:05.437Z,9.02
2019-03-23T10:58:40.419Z,9.19
2019-03-23T11:01:15.414Z,9.09
2019-03-23T11:03:50.158Z,9.05
2019-03-23T11:06:24.755Z,8.91
2019-03-23T11:08:59.436Z,8.95
2019-03-23T11:11:33.949Z,8.97
2019-03-23T11:14:11.125Z,9.11
2019-03-23T11:16:45.827Z,9.48
2019-03-23T11:19:20.657Z,9.60
2019-03-23T11:21:55.174Z,9.67
2019-03-23T11:24:29.837Z,9.62
2019-03-23T11:27:04.494Z,9.89
2019-03-23T11:29:39.209Z,9.95
2019-03-23T11:32:14.004Z,10.35
2019-03-23T11:34:48.702Z,10.23
2019-03-23T11:37:23.907Z,10.45
2019-03-23T11:39:58.588Z,10.41
2019-03-23T11:42:33.333Z,10.43
2019-03-23T11:45:08.605Z,10.88
2019-03-23T11:47:43.290Z,11.16
2019-03-23T11:50:18.131Z,11.28
2019-03-23T11:52:52.788Z,11.20
2019-03-23T11:55:27.761Z,11.59
2019-03-23T11:58:02.477Z,11.89
2019-03-23T12:00:37.129Z,12.04
2019-03-23T12:03:12.389Z,12.43
2019-03-23T12:05:47.111Z,12.36
2019-03-23T12:08:22.173Z,12.85
2019-03-23T12:11:02.800Z,13.17
2019-03-23T12:13:34.573Z,13.67
2019-03-23T12:16:09.094Z,13.83
2019-03-23T12:18:43.724Z,13.58
2019-03-23T12:21:19.273Z,13.77
2019-03-23T12:23:54.407Z,13.78
2019-03-23T12:26:29.136Z,13.39
2019-03-23T12:29:03.784Z,13.17
2019-03-23T12:31:38.329Z,13.28
2019-03-23T12:34:12.990Z,13.23
2019-03-23T12:36:47.943Z,13.07
2019-03-23T12:39:22.505Z,13.12
2019-03-23T12:41:57.279Z,13.16
2019-03-23T12:44:31.966Z,13.41
2019-03-23T12:47:06.660Z,13.31
2019-03-23T12:49:41.473Z,13.46
2019-03-23T12:52:16.210Z,13.34
2019-03-23T12:54:50.733Z,13.23
2019-03-23T12:57:25.323Z,13.23
2019-03-23T12:59:59.898Z,13.25
2019-03-23T13:02:34.951Z,13.51
2019-03-23T13:05:09.865Z,13.63
2019-03-23T13:07:45.020Z,13.78
2019-03-23T13:10:19.765Z,13.56
2019-03-23T13:12:54.389Z,13.68
2019-03-23T13:15:30.679Z,13.77
2019-03-23T13:18:05.340Z,13.79
2019-03-23T13:20:40.079Z,13.70
2019-03-23T13:23:14.707Z,13.82
2019-03-23T13:25:49.621Z,13.96
2019-03-23T13:28:24.298Z,14.21
2019-03-23T13:30:58.996Z,14.25
2019-03-23T13:33:33.495Z,14.00
2019-03-23T13:36:09.278Z,14.32
2019-03-23T13:38:43.879Z,14.26
2019-03-23T13:41:20.692Z,14.44
2019-03-23T13:43:58.579Z,14.22
2019-03-23T13:46:33.817Z,14.38
2019-03-23T13:49:16.319Z,14.32
2019-03-23T13:51:52.858Z,14.44
2019-03-23T13:54:27.495Z,14.57
2019-03-23T13:57:02.133Z,14.17
2019-03-23T13:59:36.842Z,14.14
2019-03-23T14:02:13.188Z,14.09
2019-03-23T14:04:47.766Z,14.21
2019-03-23T14:07:22.396Z,14.22
2019-03-23T14:09:57.223Z,14.34
2019-03-23T14:12:31.953Z,14.20
2019-03-23T14:15:07.199Z,14.24
2019-03-23T14:17:42.240Z,14.26
2019-03-23T14:20:17.371Z,14.17
2019-03-23T14:23:02.365Z,14.30
2019-03-23T14:25:30.247Z,14.17
2019-03-23T14:28:08.207Z,14.16
2019-03-23T14:30:44.942Z,13.89
2019-03-23T14:33:19.746Z,13.68
2019-03-23T14:35:54.271Z,13.68
2019-03-23T14:38:28.798Z,13.42
2019-03-23T14:41:03.387Z,13.59
2019-03-23T14:43:38.045Z,13.58
2019-03-23T14:46:12.873Z,13.59
2019-03-23T14:48:47.454Z,13.65
2019-03-23T14:51:22.196Z,13.46
2019-03-23T14:53:56.729Z,13.29
2019-03-23T14:56:31.973Z,13.04
2019-03-23T14:59:06.694Z,12.82
2019-03-23T15:01:42.855Z,12.90
2019-03-23T15:04:17.370Z,12.91
2019-03-23T15:06:52.170Z,12.59
2019-03-23T15:09:27.285Z,12.54
2019-03-23T15:12:01.970Z,12.66
2019-03-23T15:14:38.106Z,12.45
2019-03-23T15:17:12.569Z,12.44
2019-03-23T15:19:47.118Z,12.51
2019-03-23T15:22:22.078Z,12.53
2019-03-23T15:24:57.156Z,12.54
2019-03-23T15:27:31.795Z,12.40
2019-03-23T15:30:06.548Z,12.42
2019-03-23T15:32:41.075Z,12.50
2019-03-23T15:35:16.096Z,12.36
2019-03-23T15:37:52.865Z,12.26
2019-03-23T15:40:27.478Z,12.34
2019-03-23T15:43:02.656Z,12.31
2019-03-23T15:45:37.625Z,12.11
2019-03-23T15:48:12.362Z,12.08
2019-03-23T15:50:48.378Z,12.18
2019-03-23T15:53:23.269Z,11.96
2019-03-23T15:55:57.943Z,12.13
2019-03-23T15:58:32.518Z,11.95
2019-03-23T16:01:07.352Z,11.90
2019-03-23T16:03:43.816Z,11.84
2019-03-23T16:06:18.335Z,11.72
2019-03-23T16:08:52.957Z,11.69
2019-03-23T16:11:27.607Z,11.76
2019-03-23T16:14:02.243Z,11.68
2019-03-23T16:16:37.009Z,11.63
2019-03-23T16:19:12.014Z,11.49
2019-03-23T16:21:46.720Z,11.43
2019-03-23T16:24:21.334Z,11.51
2019-03-23T16:26:55.874Z,11.58
2019-03-23T16:29:31.005Z,11.53
2019-03-23T16:32:05.561Z,11.37
2019-03-23T16:34:40.187Z,11.31
2019-03-23T16:37:14.646Z,11.25
2019-03-23T16:39:49.516Z,11.30
2019-03-23T16:42:26.755Z,11.27
2019-03-23T16:45:01.453Z,11.27
2019-03-23T16:47:36.217Z,11.30
2019-03-23T16:50:11.679Z,11.28
2019-03-23T16:52:46.362Z,11.22
2019-03-23T16:55:21.005Z,11.24
2019-03-23T16:57:55.667Z,11.15
2019-03-23T17:00:38.603Z,11.31
2019-03-23T17:03:13.159Z,11.33
2019-03-23T17:05:47.818Z,11.22
2019-03-23T17:08:22.722Z,11.25
2019-03-23T17:10:57.644Z,11.14
2019-03-23T17:13:32.660Z,11.22
2019-03-23T17:16:07.345Z,11.04
2019-03-23T17:18:42.322Z,11.06
2019-03-23T17:21:17.349Z,11.10
2019-03-23T17:23:52.254Z,11.02
2019-03-23T17:26:26.975Z,11.01
2019-03-23T17:29:03.094Z,11.02
2019-03-23T17:31:37.934Z,10.84
2019-03-23T17:34:13.164Z,10.93
2019-03-23T17:36:49.143Z,10.84
2019-03-23T17:39:23.717Z,10.84
2019-03-23T17:41:58.348Z,10.93
2019-03-23T17:44:33.051Z,10.71
2019-03-23T17:47:07.927Z,10.66
2019-03-23T17:49:42.664Z,10.56
2019-03-23T17:52:17.286Z,10.53
2019-03-23T17:54:53.643Z,10.62
2019-03-23T17:57:28.331Z,10.40
2019-03-23T18:00:05.188Z,10.36
2019-03-23T18:02:40.285Z,10.36
2019-03-23T18:05:15.022Z,10.34
2019-03-23T18:07:49.596Z,10.31
2019-03-23T18:10:28.271Z,10.32
2019-03-23T18:13:03.430Z,10.20
2019-03-23T18:15:39.821Z,10.17
2019-03-23T18:18:14.430Z,10.22
2019-03-23T18:20:50.759Z,10.21
2019-03-23T18:23:25.323Z,10.15
2019-03-23T18:26:00.419Z,10.23
2019-03-23T18:28:35.348Z,10.21
2019-03-23T18:31:10.074Z,10.24
2019-03-23T18:33:45.117Z,10.30
2019-03-23T18:36:19.724Z,10.31
2019-03-23T18:38:54.300Z,10.14
2019-03-23T18:41:29.250Z,10.09
2019-03-23T18:44:04.028Z,10.17
2019-03-23T18:46:38.557Z,10.11
2019-03-23T18:49:13.292Z,9.96
2019-03-23T18:51:48.379Z,9.98
2019-03-23T18:54:22.979Z,9.94
2019-03-23T18:56:57.461Z,9.86
2019-03-23T18:59:32.037Z,9.84
2019-03-23T19:02:06.588Z,9.82
2019-03-23T19:04:41.297Z,9.79
2019-03-23T19:07:17.774Z,9.78
2019-03-23T19:09:52.890Z,9.78
2019-03-23T19:12:27.752Z,9.66
2019-03-23T19:15:02.319Z,9.47
2019-03-23T19:17:38.572Z,9.42
2019-03-23T19:20:13.311Z,9.33
2019-03-23T19:22:48.376Z,9.37
2019-03-23T19:25:22.945Z,9.23
2019-03-23T19:27:59.004Z,9.19
2019-03-23T19:30:33.830Z,9.12
2019-03-23T19:33:10.297Z,9.05
2019-03-23T19:35:44.839Z,9.01
2019-03-23T19:38:19.515Z,8.98
2019-03-23T19:40:54.519Z,8.88
2019-03-23T19:43:29.242Z,8.95
2019-03-23T19:46:04.087Z,8.83
2019-03-23T19:48:39.004Z,8.74
2019-03-23T19:51:14.958Z,8.64
2019-03-23T19:53:49.800Z,8.52
2019-03-23T19:56:24.433Z,8.37
2019-03-23T19:58:59.120Z,8.38
2019-03-23T20:01:34.142Z,8.23
2019-03-23T20:04:08.726Z,8.19
2019-03-23T20:06:43.741Z,8.09
2019-03-23T20:09:18.688Z,8.08
2019-03-23T20:11:53.721Z,7.99
2019-03-23T20:14:28.340Z,7.95
2019-03-23T20:17:05.004Z,7.94
2019-03-23T20:19:39.691Z,7.90
2019-03-23T20:22:14.381Z,7.98
2019-03-23T20:24:48.911Z,7.90
2019-03-23T20:27:24.317Z,7.87
2019-03-23T20:29:59.293Z,7.89
2019-03-23T20:32:34.813Z,7.84
2019-03-23T20:35:11.339Z,7.85
2019-03-23T20:37:48.844Z,7.82
2019-03-23T20:40:25.913Z,7.70
2019-03-23T20:43:01.641Z,7.63
2019-03-23T20:45:36.491Z,7.57
2019-03-23T20:48:11.245Z,7.57
2019-03-23T20:50:46.620Z,7.49
2019-03-23T20:53:22.176Z,7.44
2019-03-23T20:55:58.660Z,7.48
2019-03-23T20:58:35.922Z,7.42
2019-03-23T21:01:10.460Z,7.33
2019-03-23T21:03:44.989Z,7.43
2019-03-23T21:06:20.032Z,7.33
2019-03-23T21:08:54.979Z,7.27
2019-03-23T21:11:29.732Z,7.37
2019-03-23T21:14:07.267Z,7.27
2019-03-23T21:16:42.186Z,7.19
2019-03-23T21:19:17.160Z,7.13
2019-03-23T21:21:51.920Z,7.05
2019-03-23T21:24:26.308Z,7.17
2019-03-23T21:27:00.749Z,6.99
2019-03-23T21:29:35.299Z,6.88
2019-03-23T21:32:10.120Z,6.79
2019-03-23T21:34:46.046Z,6.67
2019-03-23T21:37:21.794Z,6.61
2019-03-23T21:39:56.619Z,6.53
2019-03-23T21:42:31.392Z,6.49
2019-03-23T21:45:07.836Z,6.41
2019-03-23T21:47:42.585Z,6.38
2019-03-23T21:50:17.865Z,6.35
2019-03-23T21:52:52.603Z,6.35
2019-03-23T21:55:28.972Z,6.25
2019-03-23T21:58:03.702Z,6.26
2019-03-23T22:00:38.629Z,6.15
2019-03-23T22:03:14.195Z,6.10
2019-03-23T22:05:48.970Z,6.02
2019-03-23T22:08:23.830Z,6.00
2019-03-23T22:10:59.957Z,5.90
2019-03-23T22:13:35.046Z,5.84
2019-03-23T22:16:09.995Z,5.77
2019-03-23T22:18:44.661Z,5.72
2019-03-23T22:21:21.067Z,5.66
2019-03-23T22:23:57.614Z,5.62
2019-03-23T22:26:32.157Z,5.56
2019-03-23T22:29:08.919Z,5.51
2019-03-23T22:31:43.571Z,5.43
2019-03-23T22:34:18.191Z,5.33
2019-03-23T22:36:53.028Z,5.26
2019-03-23T22:39:27.619Z,5.20
2019-03-23T22:42:02.432Z,5.16
2019-03-23T22:44:37.179Z,5.19
2019-03-23T22:47:12.204Z,5.20
2019-03-23T22:49:46.756Z,5.16
2019-03-23T22:52:21.702Z,5.15
2019-03-23T22:54:56.653Z,5.06
2019-03-23T22:57:31.265Z,4.94
2019-03-23T23:00:08.534Z,4.93
2019-03-23T23:02:44.929Z,4.88
2019-03-23T23:05:19.576Z,4.93
2019-03-23T23:07:54.377Z,4.92
2019-03-23T23:10:29.051Z,4.85
2019-03-23T23:13:03.985Z,4.81
2019-03-23T23:15:38.829Z,4.75
2019-03-23T23:18:13.330Z,4.70
2019-03-23T23:20:48.033Z,4.67
2019-03-23T23:23:22.656Z,4.60
2019-03-23T23:25:57.402Z,4.51
2019-03-23T23:28:32.161Z,4.47
2019-03-23T23:31:08.666Z,4.45
2019-03-23T23:33:43.300Z,4.35
2019-03-23T23:36:18.313Z,4.27
2019-03-23T23:38:53.017Z,4.21
2019-03-23T23:41:27.603Z,4.17
2019-03-23T23:44:02.143Z,4.14
2019-03-23T23:46:36.794Z,4.12
2019-03-23T23:49:11.262Z,4.08
2019-03-23T23:51:50.171Z,4.02
2019-03-23T23:54:22.160Z,3.95
2019-03-23T23:56:57.114Z,3.89
2019-03-23T23:59:31.820Z,3.83
